createdAt,value
2022-12-20T00:01:29.880Z,93.97
2022-12-20T00:04:02.509Z,99.30
2022-12-20T00:06:32.228Z,87.93
2022-12-20T00:09:02.855Z,84.97
2022-12-20T00:11:31.485Z,96.43
2022-12-20T00:13:59.733Z,107.90
2022-12-20T00:16:29.257Z,119.77
2022-12-20T00:18:59.198Z,130.17
2022-12-20T00:21:28.084Z,117.50
2022-12-20T00:23:57.747Z,128.57
2022-12-20T00:26:28.177Z,121.73
2022-12-20T00:28:57.309Z,120.13
2022-12-20T00:31:28.044Z,100.80
2022-12-20T00:33:58.223Z,118.70
2022-12-20T00:36:28.307Z,125.27
2022-12-20T00:38:59.407Z,133.80
2022-12-20T00:41:30.167Z,122.77
2022-12-20T00:43:58.758Z,123.47
2022-12-20T00:46:27.116Z,119.70
2022-12-20T00:48:56.915Z,122.93
2022-12-20T00:51:26.939Z,127.23
2022-12-20T00:53:55.832Z,119.63
2022-12-20T00:56:25.787Z,122.93
2022-12-20T00:58:58.813Z,131.47
2022-12-20T01:01:29.123Z,131.20
2022-12-20T01:03:58.015Z,120.17
2022-12-20T01:06:26.290Z,128.77
2022-12-20T01:08:54.624Z,117.33
2022-12-20T01:11:24.710Z,129.30
2022-12-20T01:13:57.144Z,127.43
2022-12-20T01:16:27.098Z,120.97
2022-12-20T01:18:55.756Z,129.70
2022-12-20T01:21:25.750Z,123.47
2022-12-20T01:23:54.508Z,132.13
2022-12-20T01:26:24.719Z,136.23
2022-12-20T01:28:56.849Z,133.10
2022-12-20T01:31:25.855Z,136.80
2022-12-20T01:33:54.240Z,128.63
2022-12-20T01:36:25.939Z,139.07
2022-12-20T01:38:57.942Z,134.07
2022-12-20T01:41:26.273Z,137.03
2022-12-20T01:43:58.867Z,133.47
2022-12-20T01:46:28.736Z,133.93
2022-12-20T01:49:01.713Z,132.73
2022-12-20T01:51:32.131Z,114.87
2022-12-20T01:54:06.090Z,125.37
2022-12-20T01:56:34.537Z,123.30
2022-12-20T01:59:05.151Z,116.83
2022-12-20T02:01:33.720Z,123.40
2022-12-20T02:04:01.789Z,124.10
2022-12-20T02:06:29.908Z,120.17
2022-12-20T02:09:03.129Z,120.97
2022-12-20T02:11:52.609Z,125.27
2022-12-20T02:14:33.796Z,133.80
2022-12-20T02:17:13.374Z,123.63
2022-12-20T02:20:07.685Z,135.80
2022-12-20T02:22:50.222Z,122.30
2022-12-20T02:25:48.381Z,129.23
2022-12-20T02:28:33.846Z,137.40
2022-12-20T02:31:06.957Z,129.27
2022-12-20T02:33:35.085Z,136.10
2022-12-20T02:36:04.452Z,129.77
2022-12-20T02:38:34.755Z,127.00
2022-12-20T02:41:07.843Z,129.40
2022-12-20T02:43:57.866Z,119.87
2022-12-20T02:46:28.672Z,108.13
2022-12-20T02:48:59.669Z,107.07
2022-12-20T02:51:29.751Z,107.57
2022-12-20T02:53:59.142Z,127.30
2022-12-20T02:56:32.586Z,128.33
2022-12-20T02:59:08.175Z,117.03
2022-12-20T03:01:40.512Z,124.27
2022-12-20T03:04:09.937Z,120.03
2022-12-20T03:06:40.776Z,113.33
2022-12-20T03:09:08.859Z,105.97
2022-12-20T03:11:38.479Z,110.60
2022-12-20T03:14:07.143Z,105.43
2022-12-20T03:16:36.992Z,100.23
2022-12-20T03:19:05.030Z,99.50
2022-12-20T03:21:33.009Z,111.90
2022-12-20T03:24:01.896Z,104.10
2022-12-20T03:26:30.061Z,104.03
2022-12-20T03:29:00.526Z,91.03
2022-12-20T03:31:29.654Z,85.37
2022-12-20T03:33:59.247Z,75.97
2022-12-20T03:36:27.808Z,63.70
2022-12-20T03:39:00.509Z,88.97
2022-12-20T03:41:31.959Z,96.63
2022-12-20T03:44:01.021Z,102.10
2022-12-20T03:46:29.204Z,80.03
2022-12-20T03:48:59.370Z,72.27
2022-12-20T03:51:27.747Z,97.80
2022-12-20T03:53:55.950Z,100.47
2022-12-20T03:56:30.612Z,105.53
2022-12-20T03:58:58.694Z,107.80
2022-12-20T04:01:29.482Z,104.10
2022-12-20T04:03:59.639Z,108.33
2022-12-20T04:06:28.606Z,107.83
2022-12-20T04:08:56.834Z,112.70
2022-12-20T04:11:30.256Z,105.43
2022-12-20T04:14:11.577Z,101.97
2022-12-20T04:16:39.943Z,87.17
2022-12-20T04:19:10.092Z,79.73
2022-12-20T04:21:42.510Z,77.63
2022-12-20T04:24:11.192Z,85.97
2022-12-20T04:27:08.168Z,84.13
2022-12-20T04:29:36.169Z,68.23
2022-12-20T04:32:06.616Z,65.17
2022-12-20T04:34:36.033Z,55.13
2022-12-20T04:37:04.474Z,56.53
2022-12-20T04:39:44.301Z,63.57
2022-12-20T04:42:35.395Z,65.27
2022-12-20T04:45:04.407Z,65.00
2022-12-20T04:47:32.681Z,65.57
2022-12-20T04:50:02.413Z,55.87
2022-12-20T04:52:48.494Z,66.63
2022-12-20T04:55:17.823Z,69.83
2022-12-20T04:57:46.182Z,68.60
2022-12-20T05:00:15.825Z,64.57
2022-12-20T05:02:47.337Z,69.20
2022-12-20T05:05:20.297Z,68.23
2022-12-20T05:07:52.717Z,69.07
2022-12-20T05:10:21.229Z,74.90
2022-12-20T05:12:50.130Z,70.93
2022-12-20T05:15:40.456Z,73.30
2022-12-20T05:18:08.696Z,67.87
2022-12-20T05:21:12.655Z,66.03
2022-12-20T05:23:58.880Z,67.03
2022-12-20T05:26:34.693Z,63.70
2022-12-20T05:29:02.878Z,66.27
2022-12-20T05:31:31.186Z,59.87
2022-12-20T05:34:00.445Z,62.83
2022-12-20T05:36:33.611Z,59.13
2022-12-20T05:39:04.869Z,54.87
2022-12-20T05:41:36.401Z,52.30
2022-12-20T05:44:04.651Z,49.90
2022-12-20T05:46:35.737Z,46.60
2022-12-20T05:49:08.806Z,46.47
2022-12-20T05:51:38.222Z,42.10
2022-12-20T05:54:25.350Z,44.53
2022-12-20T05:57:16.195Z,43.93
2022-12-20T05:59:44.429Z,44.77
2022-12-20T06:02:22.132Z,46.87
2022-12-20T06:04:54.797Z,43.23
2022-12-20T06:07:29.102Z,44.10
2022-12-20T06:10:00.415Z,42.17
2022-12-20T06:12:41.237Z,43.80
2022-12-20T06:15:10.944Z,44.90
2022-12-20T06:17:40.423Z,46.83
2022-12-20T06:20:09.711Z,46.77
2022-12-20T06:22:39.235Z,48.53
2022-12-20T06:25:09.352Z,51.37
2022-12-20T06:27:40.544Z,53.57
2022-12-20T06:30:14.603Z,54.37
2022-12-20T06:33:05.975Z,57.17
2022-12-20T06:35:33.988Z,56.47
2022-12-20T06:38:03.607Z,57.33
2022-12-20T06:40:35.040Z,54.00
2022-12-20T06:43:03.140Z,53.93
2022-12-20T06:45:34.754Z,53.00
2022-12-20T06:48:08.180Z,55.60
2022-12-20T06:50:36.893Z,56.40
2022-12-20T06:53:06.474Z,56.97
2022-12-20T06:55:34.691Z,56.63
2022-12-20T06:58:02.745Z,59.60
2022-12-20T07:00:30.954Z,59.97
2022-12-20T07:02:59.618Z,60.17
2022-12-20T07:05:27.807Z,57.07
2022-12-20T07:07:55.829Z,53.40
2022-12-20T07:10:25.350Z,55.90
2022-12-20T07:12:53.689Z,58.13
2022-12-20T07:15:22.260Z,57.00
2022-12-20T07:17:50.714Z,55.03
2022-12-20T07:20:19.584Z,55.37
2022-12-20T07:22:49.010Z,53.87
2022-12-20T07:25:17.304Z,54.73
2022-12-20T07:27:50.027Z,52.10
2022-12-20T07:30:19.193Z,55.73
2022-12-20T07:32:47.339Z,58.07
2022-12-20T07:35:16.251Z,52.97
2022-12-20T07:37:44.853Z,56.03
2022-12-20T07:40:14.831Z,52.93
2022-12-20T07:42:48.293Z,54.53
2022-12-20T07:45:18.617Z,53.87
2022-12-20T07:47:46.667Z,59.10
2022-12-20T07:50:15.018Z,66.73
2022-12-20T07:52:45.925Z,59.93
2022-12-20T07:55:15.644Z,66.77
2022-12-20T07:57:49.395Z,84.63
2022-12-20T08:00:19.841Z,88.67
2022-12-20T08:02:53.967Z,68.67
2022-12-20T08:05:22.623Z,56.67
2022-12-20T08:07:56.792Z,59.60
2022-12-20T08:10:27.554Z,57.83
2022-12-20T08:12:56.623Z,57.07
2022-12-20T08:15:26.993Z,53.03
2022-12-20T08:17:55.020Z,51.43
2022-12-20T08:20:23.353Z,50.30
2022-12-20T08:22:51.399Z,50.40
2022-12-20T08:25:19.626Z,52.33
2022-12-20T08:27:47.666Z,49.00
2022-12-20T08:30:16.350Z,49.73
2022-12-20T08:32:45.774Z,48.90
2022-12-20T08:35:14.149Z,47.57
2022-12-20T08:37:42.125Z,49.27
2022-12-20T08:40:11.407Z,48.67
2022-12-20T08:42:39.520Z,53.30
2022-12-20T08:45:08.776Z,52.80
2022-12-20T08:47:36.760Z,52.90
2022-12-20T08:50:07.167Z,56.90
2022-12-20T08:52:35.250Z,54.30
2022-12-20T08:55:05.336Z,61.93
2022-12-20T08:57:33.738Z,65.40
2022-12-20T09:00:01.716Z,53.63
2022-12-20T09:02:29.879Z,57.27
2022-12-20T09:04:59.413Z,58.67
2022-12-20T09:07:28.782Z,58.97
2022-12-20T09:09:57.296Z,61.10
2022-12-20T09:12:25.365Z,57.27
2022-12-20T09:14:54.647Z,53.17
2022-12-20T09:17:22.718Z,52.10
2022-12-20T09:19:51.017Z,52.50
2022-12-20T09:22:19.067Z,54.13
2022-12-20T09:24:49.266Z,43.20
2022-12-20T09:27:17.486Z,47.70
2022-12-20T09:29:45.543Z,44.67
2022-12-20T09:32:13.791Z,41.67
2022-12-20T09:34:48.280Z,45.47
2022-12-20T09:37:16.486Z,43.77
2022-12-20T09:39:44.619Z,45.10
2022-12-20T09:42:16.907Z,45.27
2022-12-20T09:44:45.049Z,45.17
2022-12-20T09:47:19.149Z,42.17
2022-12-20T09:49:49.569Z,40.90
2022-12-20T09:52:30.127Z,40.77
2022-12-20T09:55:07.366Z,39.93
2022-12-20T09:57:49.084Z,39.67
2022-12-20T10:00:19.840Z,38.40
2022-12-20T10:03:06.692Z,38.63
2022-12-20T10:05:44.376Z,38.93
2022-12-20T10:08:38.361Z,38.73
2022-12-20T10:11:14.771Z,38.03
2022-12-20T10:13:57.610Z,37.43
2022-12-20T10:16:40.255Z,41.60
2022-12-20T10:19:24.447Z,39.17
2022-12-20T10:22:00.177Z,45.37
2022-12-20T10:24:31.576Z,45.23
2022-12-20T10:27:08.740Z,43.77
2022-12-20T10:29:38.434Z,42.53
2022-12-20T10:32:14.608Z,44.47
2022-12-20T10:34:51.330Z,44.20
2022-12-20T10:37:19.514Z,41.07
2022-12-20T10:39:49.787Z,42.57
2022-12-20T10:42:34.329Z,40.57
2022-12-20T10:45:04.518Z,37.77
2022-12-20T10:47:39.627Z,38.23
2022-12-20T10:50:16.967Z,37.57
2022-12-20T10:52:46.375Z,37.63
2022-12-20T10:55:37.470Z,39.17
2022-12-20T10:58:07.984Z,40.10
2022-12-20T11:00:37.623Z,37.67
2022-12-20T11:03:15.812Z,40.10
2022-12-20T11:05:59.096Z,36.40
2022-12-20T11:11:19.588Z,39.97
2022-12-20T11:13:49.300Z,40.63
2022-12-20T11:16:42.946Z,43.83
2022-12-20T11:19:34.179Z,39.40
2022-12-20T11:22:12.788Z,39.63
2022-12-20T11:24:50.467Z,41.73
2022-12-20T11:27:31.429Z,39.30
2022-12-20T11:30:18.803Z,39.50
2022-12-20T11:33:18.190Z,36.80
2022-12-20T11:35:53.651Z,39.13
2022-12-20T11:38:40.448Z,40.53
2022-12-20T11:41:20.252Z,41.43
2022-12-20T11:44:26.304Z,43.17
2022-12-20T11:47:09.475Z,44.27
2022-12-20T11:50:14.493Z,47.83
2022-12-20T11:52:48.327Z,47.60
2022-12-20T11:55:21.832Z,45.23
2022-12-20T12:00:53.735Z,48.53
2022-12-20T12:03:29.930Z,45.50
2022-12-20T12:06:03.801Z,46.77
2022-12-20T12:08:41.371Z,46.97
2022-12-20T12:11:55.863Z,48.10
2022-12-20T12:14:06.256Z,50.43
2022-12-20T12:16:38.895Z,48.13
2022-12-20T12:19:11.302Z,51.23
2022-12-20T12:21:46.093Z,47.80
2022-12-20T12:24:24.626Z,50.80
2022-12-20T12:26:54.382Z,52.13
2022-12-20T12:29:23.555Z,50.20
2022-12-20T12:31:57.405Z,46.30
2022-12-20T12:34:38.737Z,51.40
2022-12-20T12:37:40.018Z,51.73
2022-12-20T12:40:27.851Z,46.63
2022-12-20T12:43:46.906Z,50.37
2022-12-20T12:46:19.526Z,47.73
2022-12-20T12:48:53.854Z,51.37
2022-12-20T12:51:33.062Z,47.60
2022-12-20T12:54:29.220Z,49.43
2022-12-20T12:57:14.032Z,48.60
2022-12-20T12:59:52.932Z,49.63
2022-12-20T13:02:52.131Z,48.33
2022-12-20T13:05:36.943Z,50.30
2022-12-20T13:08:05.990Z,49.47
2022-12-20T13:10:59.837Z,48.60
2022-12-20T13:13:28.083Z,49.87
2022-12-20T13:17:09.574Z,48.50
2022-12-20T13:19:37.628Z,53.67
2022-12-20T13:22:22.789Z,49.80
2022-12-20T13:24:56.410Z,51.53
2022-12-20T13:27:29.267Z,50.67
2022-12-20T13:30:02.536Z,51.67
2022-12-20T13:32:59.960Z,50.67
2022-12-20T13:35:47.686Z,49.33
2022-12-20T13:39:01.826Z,50.13
2022-12-20T13:41:39.498Z,47.80
2022-12-20T13:44:36.001Z,49.77
2022-12-20T13:47:13.943Z,50.53
2022-12-20T13:49:44.411Z,52.47
2022-12-20T13:52:25.447Z,50.87
